Terminal Aerodrome Forecast
Issued by NWS

Home | Current Version | Previous Version | Text Only | Print | Product List | Glossary On
Versions: 1 2 3 4 5 6 7 8 9 10 11 12 13 14 15 16 17 18
793
FTUS43 KAPX 301740 AAC
TAFTVC
TAF AMD
KTVC 301740Z 3018/0118 06008KT P6SM OVC016
     FM302100 04011G22KT 5SM BR VCSH OVC008
     FM302300 03012G22KT P6SM OVC010
     FM010300 07006KT 5SM BR VCSH OVC008
     FM010600 09005KT 4SM SHRA BR OVC008
     FM011000 11006KT 6SM SHRA OVC008 WS020/12035KT
     FM011200 14010KT P6SM BKN008 WS020/14040KT
     FM011400 17010G19KT 5SM BR BKN015
     FM011700 20010G21KT P6SM BKN040=

USA.gov is the U.S. government's official web portal to all federal, state and local government web resources and services.